Aviation Digital Data Service (ADDS)

Output produced by TAFs form (0315 UTC 22 April 2018)
found at http://aviationweather.gov/adds/tafs/
 
EGPD 220250Z AUTO 14010KT 7000 BKN004 08/07 Q1006 TEMPO SHRA
TAF AMD EGPD 220048Z 2200/2224 15009KT 7000 BKN004 
     TEMPO 2200/2205 6000 SHRA 
     PROB30 
     TEMPO 2201/2205 3000 TSRA BR BKN040CB 
     PROB30 
     TEMPO 2205/2210 2000 BR BKN001 
     BECMG 2208/2211 9999 FEW005 SCT030 
     TEMPO 2210/2217 7000 RA 
     BECMG 2215/2216 22010KT